createdAt,value
2019-03-09T00:00:44.001Z,99.99
2019-03-09T00:01:43.871Z,99.99
2019-03-09T00:02:43.741Z,99.99
2019-03-09T00:03:43.610Z,99.99
2019-03-09T00:04:43.479Z,99.99
2019-03-09T00:05:43.347Z,99.99
2019-03-09T00:06:43.213Z,99.99
2019-03-09T00:07:43.081Z,99.99
2019-03-09T00:08:42.953Z,99.99
2019-03-09T00:09:42.821Z,99.99
2019-03-09T00:10:42.688Z,99.99
2019-03-09T00:11:42.555Z,99.99
2019-03-09T00:12:42.426Z,99.99
2019-03-09T00:13:44.269Z,99.99
2019-03-09T00:14:42.161Z,99.99
2019-03-09T00:15:42.033Z,99.99
2019-03-09T00:16:41.948Z,99.99
2019-03-09T00:17:41.769Z,99.99
2019-03-09T00:18:41.637Z,99.99
2019-03-09T00:19:41.504Z,99.99
2019-03-09T00:20:41.376Z,99.99
2019-03-09T00:21:41.246Z,99.99
2019-03-09T00:22:41.112Z,99.99
2019-03-09T00:23:40.982Z,99.99
2019-03-09T00:24:40.847Z,99.99
2019-03-09T00:25:40.718Z,99.99
2019-03-09T00:26:40.585Z,99.99
2019-03-09T00:27:40.459Z,99.99
2019-03-09T00:28:40.327Z,99.99
2019-03-09T00:29:40.193Z,99.99
2019-03-09T00:30:40.058Z,99.99
2019-03-09T00:31:39.929Z,99.99
2019-03-09T00:32:39.795Z,99.99
2019-03-09T00:33:39.665Z,99.99
2019-03-09T00:34:39.536Z,99.99
2019-03-09T00:35:39.407Z,99.99
2019-03-09T00:36:39.267Z,99.99
2019-03-09T00:37:39.138Z,99.99
2019-03-09T00:38:39.004Z,99.99
2019-03-09T00:39:38.874Z,99.99
2019-03-09T00:40:38.742Z,99.99
2019-03-09T00:41:38.613Z,99.99
2019-03-09T00:42:38.475Z,99.99
2019-03-09T00:43:38.345Z,99.99
2019-03-09T00:44:38.213Z,99.99
2019-03-09T00:45:38.085Z,99.99
2019-03-09T00:46:37.951Z,99.99
2019-03-09T00:47:37.815Z,99.99
2019-03-09T00:48:37.682Z,99.99
2019-03-09T00:49:37.554Z,99.99
2019-03-09T00:50:37.429Z,99.99
2019-03-09T00:51:37.286Z,99.99
2019-03-09T00:52:37.155Z,99.47
2019-03-09T00:53:37.021Z,98.14
2019-03-09T00:54:36.895Z,96.83
2019-03-09T00:55:36.760Z,96.07
2019-03-09T00:56:36.624Z,96.26
2019-03-09T00:57:36.494Z,96.07
2019-03-09T00:58:36.359Z,95.93
2019-03-09T00:59:36.230Z,94.93
2019-03-09T01:00:36.097Z,94.89
2019-03-09T01:01:35.964Z,95.55
2019-03-09T01:02:35.828Z,95.64
2019-03-09T01:03:35.696Z,96.69
2019-03-09T01:04:35.567Z,96.78
2019-03-09T01:05:35.434Z,97.16
2019-03-09T01:06:35.303Z,96.40
2019-03-09T01:07:35.168Z,97.16
2019-03-09T01:08:35.035Z,96.40
2019-03-09T01:09:34.909Z,97.53
2019-03-09T01:10:34.769Z,97.06
2019-03-09T01:11:34.636Z,98.86
2019-03-09T01:12:34.506Z,98.58
2019-03-09T01:13:34.404Z,97.30
2019-03-09T01:14:34.241Z,97.01
2019-03-09T01:15:34.116Z,95.78
2019-03-09T01:16:33.975Z,95.88
2019-03-09T01:17:33.842Z,94.74
2019-03-09T01:18:33.710Z,95.12
2019-03-09T01:19:33.576Z,94.93
2019-03-09T01:20:33.448Z,94.93
2019-03-09T01:21:33.315Z,94.84
2019-03-09T01:22:33.179Z,94.84
2019-03-09T01:23:33.045Z,95.03
2019-03-09T01:24:32.914Z,94.74
2019-03-09T01:25:32.779Z,95.69
2019-03-09T01:26:32.645Z,95.40
2019-03-09T01:27:32.515Z,96.16
2019-03-09T01:28:32.382Z,96.64
2019-03-09T01:29:32.252Z,96.45
2019-03-09T01:30:32.119Z,97.16
2019-03-09T01:31:31.982Z,98.86
2019-03-09T01:32:31.849Z,98.62
2019-03-09T01:33:31.720Z,97.67
2019-03-09T01:34:31.584Z,98.05
2019-03-09T01:35:31.451Z,98.14
2019-03-09T01:36:31.321Z,97.58
2019-03-09T01:37:31.188Z,97.58
2019-03-09T01:38:31.057Z,98.24
2019-03-09T01:39:30.934Z,97.67
2019-03-09T01:40:30.792Z,98.14
2019-03-09T01:41:30.658Z,96.73
2019-03-09T01:42:30.524Z,95.59
2019-03-09T01:43:30.396Z,95.97
2019-03-09T01:44:30.260Z,96.35
2019-03-09T01:45:30.128Z,96.92
2019-03-09T01:46:29.992Z,97.58
2019-03-09T01:47:29.860Z,97.58
2019-03-09T01:48:29.731Z,99.00
2019-03-09T01:49:29.599Z,99.62
2019-03-09T01:50:29.465Z,99.99
2019-03-09T01:51:29.334Z,99.99
2019-03-09T01:52:29.201Z,99.99
2019-03-09T01:53:36.517Z,99.99
2019-03-09T01:54:28.933Z,99.99
2019-03-09T01:55:28.820Z,99.99
2019-03-09T01:56:28.668Z,99.99
2019-03-09T01:57:28.540Z,99.99
2019-03-09T01:58:28.406Z,99.99
2019-03-09T01:59:28.274Z,99.99
2019-03-09T02:00:28.144Z,99.99
2019-03-09T02:01:28.007Z,99.99
2019-03-09T02:02:27.877Z,99.99
2019-03-09T02:03:27.742Z,99.99
2019-03-09T02:04:27.611Z,99.99
2019-03-09T02:05:27.478Z,99.99
2019-03-09T02:06:27.347Z,99.99
2019-03-09T02:07:27.216Z,99.99
2019-03-09T02:08:27.084Z,99.99
2019-03-09T02:09:26.954Z,99.99
2019-03-09T02:10:26.819Z,99.99
2019-03-09T02:11:26.688Z,99.99
2019-03-09T02:12:26.554Z,99.99
2019-03-09T02:13:26.424Z,99.99
2019-03-09T02:14:26.291Z,99.99
2019-03-09T02:15:26.162Z,99.99
2019-03-09T02:16:26.028Z,99.99
2019-03-09T02:17:25.897Z,99.99
2019-03-09T02:18:25.767Z,99.99
2019-03-09T02:19:25.634Z,99.99
2019-03-09T02:20:25.501Z,99.99
2019-03-09T02:21:25.368Z,99.99
2019-03-09T02:22:25.236Z,99.99
2019-03-09T02:23:25.109Z,99.99
2019-03-09T02:24:24.982Z,99.99
2019-03-09T02:25:24.844Z,99.99
2019-03-09T02:26:24.709Z,99.99
2019-03-09T02:27:24.576Z,99.99
2019-03-09T02:28:24.447Z,99.99
2019-03-09T02:29:24.315Z,99.99
2019-03-09T02:30:24.182Z,99.99
2019-03-09T02:31:24.054Z,99.99
2019-03-09T02:32:23.929Z,99.99
2019-03-09T02:33:23.786Z,99.99
2019-03-09T02:34:23.660Z,99.99
2019-03-09T02:35:23.524Z,99.99
2019-03-09T02:36:23.389Z,99.99
2019-03-09T02:37:23.260Z,99.99
2019-03-09T02:38:23.137Z,99.99
2019-03-09T02:39:22.993Z,99.99
2019-03-09T02:40:23.314Z,99.99
2019-03-09T02:41:22.730Z,99.99
2019-03-09T02:42:22.597Z,99.99
2019-03-09T02:43:22.467Z,99.99
2019-03-09T02:44:22.335Z,99.99
2019-03-09T02:45:22.209Z,99.99
2019-03-09T02:46:22.072Z,99.99
2019-03-09T02:47:21.938Z,99.99
2019-03-09T02:48:21.826Z,99.99
2019-03-09T02:49:21.677Z,99.99
2019-03-09T02:50:21.543Z,99.99
2019-03-09T02:51:21.411Z,99.99
2019-03-09T02:52:21.282Z,99.99
2019-03-09T02:53:21.146Z,99.99
2019-03-09T02:54:21.016Z,99.99
2019-03-09T02:55:20.888Z,99.99
2019-03-09T02:56:20.749Z,99.99
2019-03-09T02:57:20.617Z,99.99
2019-03-09T02:58:20.486Z,99.99
2019-03-09T02:59:20.354Z,99.99
2019-03-09T03:00:20.255Z,99.99
2019-03-09T03:01:20.095Z,99.99
2019-03-09T03:02:19.958Z,99.99
2019-03-09T03:03:19.825Z,99.99
2019-03-09T03:04:19.691Z,99.99
2019-03-09T03:05:19.564Z,99.99
2019-03-09T03:06:19.428Z,99.99
2019-03-09T03:07:19.297Z,99.99
2019-03-09T03:08:19.164Z,99.99
2019-03-09T03:09:19.033Z,99.99
2019-03-09T03:10:18.906Z,99.99
2019-03-09T03:11:18.772Z,99.99
2019-03-09T03:12:18.647Z,99.99
2019-03-09T03:13:18.502Z,99.99
2019-03-09T03:14:18.377Z,99.99
2019-03-09T03:15:18.240Z,99.99
2019-03-09T03:16:18.107Z,99.99
2019-03-09T03:17:17.979Z,99.99
2019-03-09T03:18:17.849Z,99.99
2019-03-09T03:19:17.714Z,99.99
2019-03-09T03:20:17.579Z,99.99
2019-03-09T03:21:17.446Z,99.99
2019-03-09T03:22:17.315Z,99.99
2019-03-09T03:23:17.184Z,99.99
2019-03-09T03:24:17.053Z,99.99
2019-03-09T03:25:17.884Z,99.99
2019-03-09T03:26:16.797Z,99.99
2019-03-09T03:27:16.654Z,99.99
2019-03-09T03:28:16.531Z,99.99
2019-03-09T03:29:16.393Z,99.99
2019-03-09T03:30:16.263Z,99.99
2019-03-09T03:31:16.131Z,99.99
2019-03-09T03:32:15.999Z,99.99
2019-03-09T03:33:15.864Z,99.99
2019-03-09T03:34:15.729Z,99.99
2019-03-09T03:35:15.599Z,99.99
2019-03-09T03:36:15.466Z,99.99
2019-03-09T03:37:15.343Z,99.99
2019-03-09T03:38:15.204Z,99.99
2019-03-09T03:39:15.070Z,99.99
2019-03-09T03:40:14.937Z,99.99
2019-03-09T03:41:14.804Z,99.99
2019-03-09T03:42:14.675Z,99.99
2019-03-09T03:43:16.173Z,99.99
2019-03-09T03:44:14.408Z,99.99
2019-03-09T03:45:14.279Z,99.99
2019-03-09T03:46:14.139Z,99.99
2019-03-09T03:47:14.010Z,99.99
2019-03-09T03:48:13.881Z,99.99
2019-03-09T03:49:13.747Z,99.99
2019-03-09T03:50:13.616Z,99.99
2019-03-09T03:51:13.487Z,99.99
2019-03-09T03:52:13.351Z,99.99
2019-03-09T03:53:13.221Z,99.99
2019-03-09T03:54:13.899Z,99.99
2019-03-09T03:55:12.956Z,99.99
2019-03-09T03:56:12.845Z,99.99
2019-03-09T03:57:12.685Z,99.99
2019-03-09T03:58:12.562Z,99.99
2019-03-09T03:59:12.428Z,99.99
2019-03-09T04:00:12.294Z,99.99
2019-03-09T04:01:12.160Z,99.99
2019-03-09T04:02:12.024Z,99.99
2019-03-09T04:03:11.894Z,99.99
2019-03-09T04:04:11.772Z,99.99
2019-03-09T04:05:11.627Z,99.99
2019-03-09T04:06:11.497Z,99.99
2019-03-09T04:07:11.361Z,99.99
2019-03-09T04:08:11.229Z,99.99
2019-03-09T04:09:11.098Z,99.99
2019-03-09T04:10:10.967Z,99.99
2019-03-09T04:11:10.851Z,99.99
2019-03-09T04:12:10.700Z,99.99
2019-03-09T04:13:10.586Z,99.99
2019-03-09T04:14:10.436Z,99.99
2019-03-09T04:15:10.311Z,99.99
2019-03-09T04:16:10.176Z,99.99
2019-03-09T04:17:10.042Z,99.99
2019-03-09T04:18:09.910Z,99.99
2019-03-09T04:19:09.772Z,99.99
2019-03-09T04:20:09.642Z,99.99
2019-03-09T04:21:09.510Z,99.99
2019-03-09T04:22:09.388Z,99.99
2019-03-09T04:23:09.903Z,99.99
2019-03-09T04:24:09.119Z,99.99
2019-03-09T04:25:08.980Z,99.99
2019-03-09T04:26:08.843Z,99.99
2019-03-09T04:27:08.719Z,99.99
2019-03-09T04:28:08.583Z,99.99
2019-03-09T04:29:08.452Z,99.99
2019-03-09T04:30:08.320Z,99.99
2019-03-09T04:31:08.202Z,99.99
2019-03-09T04:32:08.057Z,99.99
2019-03-09T04:33:07.921Z,99.99
2019-03-09T04:34:07.787Z,99.99
2019-03-09T04:35:07.654Z,99.99
2019-03-09T04:36:07.530Z,99.99
2019-03-09T04:37:07.392Z,99.99
2019-03-09T04:38:07.257Z,99.99
2019-03-09T04:39:07.136Z,99.99
2019-03-09T04:40:06.998Z,99.99
2019-03-09T04:41:06.862Z,99.99
2019-03-09T04:42:06.729Z,99.99
2019-03-09T04:43:06.598Z,99.99
2019-03-09T04:44:06.469Z,99.99
2019-03-09T04:45:06.335Z,99.99
2019-03-09T04:46:06.201Z,99.99
2019-03-09T04:47:06.069Z,99.99
2019-03-09T04:48:05.935Z,99.99
2019-03-09T04:49:05.808Z,99.99
2019-03-09T04:50:05.670Z,99.99
2019-03-09T04:51:05.540Z,99.99
2019-03-09T04:52:05.917Z,99.99
2019-03-09T04:53:05.277Z,99.99
2019-03-09T04:54:05.146Z,99.99
2019-03-09T04:55:05.010Z,99.99
2019-03-09T04:56:04.885Z,99.99
2019-03-09T04:57:04.750Z,99.99
2019-03-09T04:58:04.619Z,99.99
2019-03-09T04:59:04.488Z,99.99
2019-03-09T05:00:04.353Z,99.99
2019-03-09T05:01:04.221Z,99.99
2019-03-09T05:02:04.085Z,99.99
2019-03-09T05:03:03.952Z,99.99
2019-03-09T05:04:03.825Z,99.99
2019-03-09T05:05:03.691Z,99.99
2019-03-09T05:06:03.559Z,99.99
2019-03-09T05:07:03.427Z,99.99
2019-03-09T05:08:03.294Z,99.99
2019-03-09T05:09:03.165Z,99.99
2019-03-09T05:10:03.030Z,99.99
2019-03-09T05:11:02.896Z,99.99
2019-03-09T05:12:02.770Z,99.99
2019-03-09T05:13:02.634Z,99.99
2019-03-09T05:14:02.504Z,99.99
2019-03-09T05:15:02.367Z,99.99
2019-03-09T05:16:02.233Z,99.99
2019-03-09T05:17:02.107Z,99.99
2019-03-09T05:18:01.969Z,99.99
2019-03-09T05:19:01.837Z,99.99
2019-03-09T05:20:01.706Z,99.99
2019-03-09T05:21:01.949Z,99.99
2019-03-09T05:22:01.439Z,99.99
2019-03-09T05:23:01.309Z,99.99
2019-03-09T05:24:01.175Z,99.99
2019-03-09T05:25:01.044Z,99.99
2019-03-09T05:26:00.909Z,99.99
2019-03-09T05:27:00.778Z,99.99
2019-03-09T05:28:00.646Z,99.99
2019-03-09T05:29:00.513Z,99.99
2019-03-09T05:30:00.382Z,99.99
2019-03-09T05:31:00.252Z,99.99
2019-03-09T05:32:00.116Z,99.99
2019-03-09T05:32:59.994Z,99.99
2019-03-09T05:33:59.849Z,99.99
2019-03-09T05:34:59.717Z,99.99
2019-03-09T05:35:59.594Z,99.99
2019-03-09T05:36:59.456Z,99.99
2019-03-09T05:37:59.324Z,99.99
2019-03-09T05:38:59.188Z,99.99
2019-03-09T05:39:59.061Z,99.99
2019-03-09T05:40:58.926Z,99.99
2019-03-09T05:41:58.793Z,99.99
2019-03-09T05:42:58.659Z,99.99
2019-03-09T05:43:58.538Z,99.99
2019-03-09T05:44:58.397Z,99.99
2019-03-09T05:45:58.264Z,99.99
2019-03-09T05:46:58.131Z,99.99
2019-03-09T05:47:57.998Z,99.99
2019-03-09T05:48:57.865Z,99.99
2019-03-09T05:49:57.992Z,99.99
2019-03-09T05:50:57.604Z,99.99
2019-03-09T05:51:57.473Z,99.99
2019-03-09T05:52:57.338Z,99.99
2019-03-09T05:53:57.205Z,99.99
2019-03-09T05:54:57.075Z,99.99
2019-03-09T05:55:56.945Z,99.99
2019-03-09T05:56:56.812Z,99.99
2019-03-09T05:57:56.683Z,99.99
2019-03-09T05:58:56.551Z,99.99
2019-03-09T05:59:56.415Z,99.99
2019-03-09T06:00:56.281Z,99.99
2019-03-09T06:01:56.152Z,99.99
2019-03-09T06:02:56.018Z,99.99
2019-03-09T06:03:55.886Z,99.99
2019-03-09T06:04:55.753Z,99.99
2019-03-09T06:05:55.622Z,99.99
2019-03-09T06:06:55.487Z,99.99
2019-03-09T06:07:55.359Z,99.99
2019-03-09T06:08:55.226Z,99.99
2019-03-09T06:09:55.091Z,99.99
2019-03-09T06:10:54.967Z,99.99
2019-03-09T06:11:54.833Z,99.99
2019-03-09T06:12:54.693Z,99.99
2019-03-09T06:13:54.578Z,99.99
2019-03-09T06:14:54.429Z,99.99
2019-03-09T06:15:54.304Z,99.99
2019-03-09T06:16:54.166Z,99.99
2019-03-09T06:17:54.033Z,99.99
2019-03-09T06:18:53.991Z,99.99
2019-03-09T06:19:53.769Z,99.99
2019-03-09T06:20:53.641Z,99.99
2019-03-09T06:21:53.505Z,99.99
2019-03-09T06:22:53.370Z,99.99
2019-03-09T06:23:53.240Z,99.99
2019-03-09T06:24:53.110Z,99.99
2019-03-09T06:25:52.979Z,99.99
2019-03-09T06:26:52.846Z,99.99
2019-03-09T06:27:52.716Z,99.99
2019-03-09T06:28:52.580Z,99.99
2019-03-09T06:29:52.453Z,99.99
2019-03-09T06:30:52.314Z,99.99
2019-03-09T06:31:52.185Z,99.99
2019-03-09T06:32:52.054Z,99.99
2019-03-09T06:33:51.919Z,99.99
2019-03-09T06:34:51.789Z,99.99
2019-03-09T06:35:51.656Z,99.99
2019-03-09T06:36:51.525Z,99.99
2019-03-09T06:37:51.392Z,99.99
2019-03-09T06:38:51.268Z,99.99
2019-03-09T06:39:51.134Z,99.99
2019-03-09T06:40:51.004Z,99.99
2019-03-09T06:41:50.866Z,99.99
2019-03-09T06:42:50.734Z,99.99
2019-03-09T06:43:50.606Z,99.99
2019-03-09T06:44:50.476Z,99.99
2019-03-09T06:45:50.343Z,99.99
2019-03-09T06:46:50.237Z,99.99
2019-03-09T06:47:50.090Z,99.99
2019-03-09T06:48:49.947Z,99.99
2019-03-09T06:49:49.817Z,99.99
2019-03-09T06:50:49.683Z,99.99
2019-03-09T06:51:49.549Z,99.99
2019-03-09T06:52:49.428Z,99.99
2019-03-09T06:53:49.286Z,99.99
2019-03-09T06:54:49.156Z,99.99
2019-03-09T06:55:49.025Z,99.99
2019-03-09T06:56:48.909Z,99.99
2019-03-09T06:57:48.762Z,99.99
2019-03-09T06:58:48.639Z,99.99
2019-03-09T06:59:48.501Z,99.99
2019-03-09T07:00:48.373Z,99.99
2019-03-09T07:01:48.239Z,99.99
2019-03-09T07:02:48.104Z,99.99
2019-03-09T07:03:47.975Z,99.99
2019-03-09T07:04:47.847Z,99.99
2019-03-09T07:05:47.756Z,99.99
2019-03-09T07:06:47.582Z,99.99
2019-03-09T07:07:47.451Z,99.99
2019-03-09T07:08:47.324Z,99.99
2019-03-09T07:09:47.189Z,99.99
2019-03-09T07:10:47.064Z,99.99
2019-03-09T07:11:46.923Z,99.99
2019-03-09T07:12:46.863Z,99.99
2019-03-09T07:13:52.980Z,99.99
2019-03-09T07:14:46.529Z,99.99
2019-03-09T07:15:46.398Z,99.99
2019-03-09T07:16:46.266Z,99.99
2019-03-09T07:17:46.135Z,99.99
2019-03-09T07:18:46.009Z,99.99
2019-03-09T07:19:45.876Z,99.99
2019-03-09T07:20:45.741Z,99.99
2019-03-09T07:21:45.633Z,99.99
2019-03-09T07:22:45.478Z,99.99
2019-03-09T07:23:45.349Z,99.99
2019-03-09T07:24:45.215Z,99.99
2019-03-09T07:25:45.087Z,99.99
2019-03-09T07:26:44.955Z,99.99
2019-03-09T07:27:44.823Z,99.99
2019-03-09T07:28:44.691Z,99.99
2019-03-09T07:29:44.559Z,99.99
2019-03-09T07:30:44.430Z,99.99
2019-03-09T07:31:44.300Z,99.99
2019-03-09T07:32:44.171Z,99.99
2019-03-09T07:33:44.036Z,99.99
2019-03-09T07:34:43.906Z,99.99
2019-03-09T07:35:43.773Z,99.99
2019-03-09T07:36:43.647Z,99.99
2019-03-09T07:37:43.513Z,99.99
2019-03-09T07:38:43.381Z,99.99
2019-03-09T07:39:43.260Z,99.99
2019-03-09T07:40:43.124Z,99.99
2019-03-09T07:41:42.990Z,99.99
2019-03-09T07:42:42.859Z,99.99
2019-03-09T07:43:42.731Z,99.99
2019-03-09T07:44:42.601Z,99.99
2019-03-09T07:45:42.471Z,99.99
2019-03-09T07:46:42.335Z,99.99
2019-03-09T07:47:42.206Z,99.99
2019-03-09T07:48:42.079Z,99.99
2019-03-09T07:49:41.946Z,99.99
2019-03-09T07:50:41.817Z,99.99
2019-03-09T07:51:41.688Z,99.99
2019-03-09T07:52:41.559Z,99.99
2019-03-09T07:53:41.427Z,99.99
2019-03-09T07:54:41.302Z,99.99
2019-03-09T07:55:41.167Z,99.99
2019-03-09T07:56:42.859Z,99.99
2019-03-09T07:57:40.914Z,99.99
2019-03-09T07:58:40.783Z,99.99
2019-03-09T07:59:40.649Z,99.99
2019-03-09T08:00:40.518Z,99.99
2019-03-09T08:01:40.390Z,99.99
2019-03-09T08:02:40.257Z,99.99
2019-03-09T08:03:40.127Z,99.99
2019-03-09T08:04:40.000Z,99.99
2019-03-09T08:05:39.872Z,99.99
2019-03-09T08:06:39.740Z,99.99
2019-03-09T08:07:39.615Z,99.99
2019-03-09T08:08:39.482Z,99.99
2019-03-09T08:09:39.365Z,99.99
2019-03-09T08:10:39.224Z,99.99
2019-03-09T08:11:39.094Z,99.99
2019-03-09T08:12:38.963Z,99.99
2019-03-09T08:13:38.835Z,99.99
2019-03-09T08:14:38.704Z,99.99
2019-03-09T08:15:38.582Z,99.99
2019-03-09T08:16:38.451Z,99.99
2019-03-09T08:17:38.317Z,99.99
2019-03-09T08:18:38.192Z,99.54
2019-03-09T08:19:38.066Z,99.99
2019-03-09T08:20:37.933Z,99.99
2019-03-09T08:21:37.822Z,99.99
2019-03-09T08:22:37.673Z,99.99
2019-03-09T08:23:37.573Z,99.99
2019-03-09T08:24:37.419Z,99.54
2019-03-09T08:25:37.294Z,98.11
2019-03-09T08:26:37.158Z,99.99
2019-03-09T08:27:37.033Z,97.45
2019-03-09T08:28:36.902Z,97.31
2019-03-09T08:29:36.774Z,98.44
2019-03-09T08:30:36.643Z,99.49
2019-03-09T08:31:36.517Z,99.99
2019-03-09T08:32:36.409Z,99.99
2019-03-09T08:33:36.260Z,99.99
2019-03-09T08:34:36.132Z,99.99
2019-03-09T08:35:36.010Z,99.99
2019-03-09T08:36:35.885Z,99.99
2019-03-09T08:37:35.744Z,99.99
2019-03-09T08:38:35.615Z,99.99
2019-03-09T08:39:35.495Z,99.99
2019-03-09T08:40:35.365Z,99.99
2019-03-09T08:41:35.271Z,99.99
2019-03-09T08:42:35.105Z,99.99
2019-03-09T08:43:35.008Z,99.99
2019-03-09T08:44:38.352Z,99.99
2019-03-09T08:45:34.711Z,99.99
2019-03-09T08:46:34.585Z,99.99
2019-03-09T08:47:34.454Z,99.99
2019-03-09T08:48:34.363Z,99.99
2019-03-09T08:49:34.196Z,99.99
2019-03-09T08:50:34.072Z,99.99
2019-03-09T08:51:33.941Z,99.99
2019-03-09T08:52:33.811Z,99.99
2019-03-09T08:53:33.714Z,99.99
2019-03-09T08:54:33.590Z,99.99
2019-03-09T08:55:33.442Z,99.99
2019-03-09T08:56:33.634Z,99.99
2019-03-09T08:57:33.168Z,99.99
2019-03-09T08:58:33.059Z,99.99
2019-03-09T08:59:32.909Z,99.99
2019-03-09T09:00:32.828Z,99.99
2019-03-09T09:01:32.667Z,99.99
2019-03-09T09:02:32.523Z,99.99
2019-03-09T09:03:32.395Z,99.99
2019-03-09T09:04:32.268Z,99.99
2019-03-09T09:05:32.141Z,99.99
2019-03-09T09:06:32.017Z,99.99
2019-03-09T09:07:31.888Z,99.99
2019-03-09T09:08:31.754Z,99.99
2019-03-09T09:09:31.640Z,99.99
2019-03-09T09:10:31.498Z,99.68
2019-03-09T09:11:31.372Z,99.99
2019-03-09T09:12:31.237Z,99.99
2019-03-09T09:13:31.110Z,99.99
2019-03-09T09:14:30.988Z,99.99
2019-03-09T09:15:30.855Z,99.99
2019-03-09T09:16:30.726Z,99.99
2019-03-09T09:17:30.597Z,99.99
2019-03-09T09:18:30.469Z,99.99
2019-03-09T09:19:30.339Z,99.99
2019-03-09T09:20:30.213Z,99.87
2019-03-09T09:21:30.083Z,97.22
2019-03-09T09:22:29.951Z,96.74
2019-03-09T09:23:29.825Z,96.55
2019-03-09T09:24:29.697Z,99.99
2019-03-09T09:25:29.568Z,99.99
2019-03-09T09:26:29.440Z,99.99
2019-03-09T09:27:29.311Z,99.99
2019-03-09T09:28:29.186Z,99.99
2019-03-09T09:29:29.059Z,99.99
2019-03-09T09:30:28.928Z,99.99
2019-03-09T09:31:28.799Z,99.99
2019-03-09T09:32:28.671Z,99.99
2019-03-09T09:33:28.545Z,99.99
2019-03-09T09:34:28.415Z,99.99
2019-03-09T09:35:28.286Z,99.99
2019-03-09T09:36:28.160Z,99.99
2019-03-09T09:37:28.030Z,99.99
2019-03-09T09:38:27.901Z,99.99
2019-03-09T09:39:27.775Z,99.99
2019-03-09T09:40:27.647Z,99.99
2019-03-09T09:41:27.515Z,99.99
2019-03-09T09:42:28.127Z,99.99
2019-03-09T09:43:27.264Z,99.99
2019-03-09T09:44:27.141Z,99.99
2019-03-09T09:45:27.010Z,99.99
2019-03-09T09:46:26.880Z,99.99
2019-03-09T09:47:26.760Z,99.99
2019-03-09T09:48:26.625Z,99.99
2019-03-09T09:49:26.524Z,99.99
2019-03-09T09:50:26.371Z,98.50
2019-03-09T09:51:26.252Z,99.99
2019-03-09T09:52:26.114Z,99.99
2019-03-09T09:53:25.987Z,98.59
2019-03-09T09:54:25.855Z,99.07
2019-03-09T09:55:25.730Z,98.36
2019-03-09T09:56:25.612Z,95.60
2019-03-09T09:57:25.473Z,91.89
2019-03-09T09:58:25.353Z,93.04
2019-03-09T09:59:25.227Z,89.94
2019-03-09T10:00:25.089Z,86.43
2019-03-09T10:01:24.968Z,86.24
2019-03-09T10:02:24.842Z,85.52
2019-03-09T10:03:24.710Z,87.23
2019-03-09T10:04:24.585Z,86.42
2019-03-09T10:05:24.457Z,83.65
2019-03-09T10:06:24.330Z,80.55
2019-03-09T10:07:24.203Z,79.70
2019-03-09T10:08:24.076Z,78.94
2019-03-09T10:09:23.950Z,77.13
2019-03-09T10:10:23.823Z,77.61
2019-03-09T10:11:24.118Z,77.03
2019-03-09T10:12:23.571Z,76.65
2019-03-09T10:13:23.451Z,77.93
2019-03-09T10:14:23.331Z,75.45
2019-03-09T10:15:23.199Z,74.02
2019-03-09T10:16:23.071Z,72.60
2019-03-09T10:17:22.942Z,73.45
2019-03-09T10:18:22.821Z,72.88
2019-03-09T10:19:22.693Z,72.41
2019-03-09T10:20:22.570Z,71.26
2019-03-09T10:21:22.443Z,71.68
2019-03-09T10:22:22.317Z,71.26
2019-03-09T10:23:22.194Z,70.59
2019-03-09T10:24:22.071Z,70.47
2019-03-09T10:25:21.942Z,70.56
2019-03-09T10:26:24.047Z,71.61
2019-03-09T10:27:21.704Z,72.56
2019-03-09T10:28:21.571Z,69.23
2019-03-09T10:29:21.444Z,68.52
2019-03-09T10:30:21.319Z,70.65
2019-03-09T10:31:21.194Z,71.32
2019-03-09T10:32:21.071Z,69.79
2019-03-09T10:33:20.946Z,70.08
2019-03-09T10:34:20.825Z,70.21
2019-03-09T10:35:20.768Z,69.79
2019-03-09T10:36:20.571Z,70.40
2019-03-09T10:37:20.446Z,70.50
2019-03-09T10:38:20.322Z,68.69
2019-03-09T10:39:20.231Z,68.78
2019-03-09T10:40:20.129Z,68.82
2019-03-09T10:41:19.946Z,67.58
2019-03-09T10:42:19.826Z,66.94
2019-03-09T10:43:19.698Z,65.52
2019-03-09T10:44:19.575Z,63.70
2019-03-09T10:45:19.508Z,64.28
2019-03-09T10:46:19.325Z,63.32
2019-03-09T10:47:19.206Z,62.24
2019-03-09T10:48:19.077Z,61.89
2019-03-09T10:49:18.953Z,62.56
2019-03-09T10:50:18.831Z,60.08
2019-03-09T10:51:18.726Z,59.60
2019-03-09T10:52:18.580Z,59.89
2019-03-09T10:53:18.495Z,58.17
2019-03-09T10:54:18.332Z,58.46
2019-03-09T10:55:18.213Z,59.63
2019-03-09T10:56:18.122Z,58.58
2019-03-09T10:57:18.007Z,57.65
2019-03-09T10:58:17.840Z,55.82
2019-03-09T10:59:17.714Z,56.10
2019-03-09T11:00:17.593Z,56.36
2019-03-09T11:01:17.470Z,55.76
2019-03-09T11:02:17.347Z,56.14
2019-03-09T11:03:17.220Z,56.14
2019-03-09T11:04:24.309Z,57.28
2019-03-09T11:05:17.018Z,58.59
2019-03-09T11:06:16.882Z,58.81
2019-03-09T11:07:16.728Z,59.19
2019-03-09T11:08:16.604Z,59.22
2019-03-09T11:09:16.480Z,58.46
2019-03-09T11:10:16.378Z,57.79
2019-03-09T11:11:16.232Z,57.12
2019-03-09T11:12:16.111Z,57.12
2019-03-09T11:13:15.987Z,56.17
2019-03-09T11:14:15.859Z,57.31
2019-03-09T11:15:15.733Z,58.01
2019-03-09T11:16:15.612Z,58.39
2019-03-09T11:17:15.487Z,57.28
2019-03-09T11:18:15.367Z,55.46
2019-03-09T11:19:15.264Z,54.72
2019-03-09T11:20:15.119Z,53.65
2019-03-09T11:21:14.994Z,53.67
2019-03-09T11:22:14.890Z,53.49
2019-03-09T11:23:14.753Z,53.58
2019-03-09T11:24:14.635Z,52.34
2019-03-09T11:25:14.512Z,52.24
2019-03-09T11:26:14.380Z,52.53
2019-03-09T11:27:14.259Z,52.53
2019-03-09T11:28:14.135Z,53.00
2019-03-09T11:29:14.014Z,52.17
2019-03-09T11:30:13.888Z,52.46
2019-03-09T11:31:13.771Z,51.86
2019-03-09T11:32:13.668Z,51.41
2019-03-09T11:33:13.526Z,52.55
2019-03-09T11:34:13.400Z,50.81
2019-03-09T11:35:13.281Z,51.64
2019-03-09T11:36:13.155Z,53.20
2019-03-09T11:37:13.036Z,53.13
2019-03-09T11:38:12.910Z,53.29
2019-03-09T11:39:12.788Z,53.58
2019-03-09T11:40:12.668Z,52.34
2019-03-09T11:41:19.116Z,52.40
2019-03-09T11:42:12.422Z,52.53
2019-03-09T11:43:12.306Z,53.20
2019-03-09T11:44:12.177Z,53.70
2019-03-09T11:45:12.055Z,53.58
2019-03-09T11:46:11.931Z,52.53
2019-03-09T11:47:11.810Z,53.13
2019-03-09T11:48:11.687Z,54.27
2019-03-09T11:49:11.565Z,52.29
2019-03-09T11:50:11.443Z,52.01
2019-03-09T11:51:11.327Z,52.20
2019-03-09T11:52:19.532Z,52.29
2019-03-09T11:53:11.076Z,51.81
2019-03-09T11:54:10.959Z,51.24
2019-03-09T11:55:10.837Z,51.72
2019-03-09T11:56:10.711Z,51.91
2019-03-09T11:57:10.590Z,50.74
2019-03-09T11:58:10.477Z,51.21
2019-03-09T11:59:10.354Z,51.62
2019-03-09T12:00:10.227Z,51.24
2019-03-09T12:01:10.100Z,51.79
2019-03-09T12:02:09.979Z,53.00
2019-03-09T12:03:09.860Z,53.27
2019-03-09T12:04:09.737Z,53.72
2019-03-09T12:05:09.611Z,54.86
2019-03-09T12:06:09.489Z,55.05
2019-03-09T12:07:09.368Z,55.62
2019-03-09T12:08:10.133Z,56.60
2019-03-09T12:09:09.127Z,56.35
2019-03-09T12:10:08.999Z,55.68
2019-03-09T12:11:08.878Z,54.34
2019-03-09T12:12:08.757Z,54.44
2019-03-09T12:13:08.633Z,53.77
2019-03-09T12:14:08.520Z,53.29
2019-03-09T12:15:08.390Z,54.53
2019-03-09T12:16:08.266Z,54.75
2019-03-09T12:17:12.598Z,54.37
2019-03-09T12:18:08.023Z,54.66
2019-03-09T12:19:07.901Z,55.32
2019-03-09T12:20:07.780Z,53.61
2019-03-09T12:21:07.660Z,54.47
2019-03-09T12:22:07.534Z,54.75
2019-03-09T12:23:07.415Z,54.56
2019-03-09T12:24:16.082Z,54.37
2019-03-09T12:25:07.171Z,54.37
2019-03-09T12:26:07.050Z,54.39
2019-03-09T12:27:06.924Z,53.63
2019-03-09T12:28:06.799Z,53.22
2019-03-09T12:29:06.685Z,53.13
2019-03-09T12:30:06.558Z,53.41
2019-03-09T12:31:06.435Z,54.30
2019-03-09T12:32:06.317Z,53.53
2019-03-09T12:33:06.195Z,53.18
2019-03-09T12:34:06.072Z,52.61
2019-03-09T12:35:05.951Z,52.51
2019-03-09T12:36:05.825Z,52.22
2019-03-09T12:37:06.171Z,51.75
2019-03-09T12:38:05.584Z,52.70
2019-03-09T12:39:05.460Z,51.84
2019-03-09T12:40:05.342Z,52.22
2019-03-09T12:41:06.909Z,52.25
2019-03-09T12:42:05.092Z,52.34
2019-03-09T12:43:04.974Z,51.51
2019-03-09T12:44:04.850Z,51.15
2019-03-09T12:45:04.732Z,47.89
2019-03-09T12:46:04.610Z,47.80
2019-03-09T12:47:04.488Z,49.02
2019-03-09T12:48:04.361Z,49.31
2019-03-09T12:49:04.243Z,49.93
2019-03-09T12:50:04.121Z,50.48
2019-03-09T12:51:04.005Z,51.53